sensor_id;sensor_type;location;lat;lon;timestamp;P1;durP1;ratioP1;P2;durP2;ratioP2
57615;SDS011;43816;52.054;-9.494;2023-04-03T00:00:09;1.98;;;1.30;;
57615;SDS011;43816;52.054;-9.494;2023-04-03T00:00:20;1.98;;;1.35;;
57615;SDS011;43816;52.054;-9.494;2023-04-03T00:00:30;1.50;;;1.30;;
57615;SDS011;43816;52.054;-9.494;2023-04-03T00:00:40;1.67;;;1.27;;
57615;SDS011;43816;52.054;-9.494;2023-04-03T00:00:51;1.47;;;1.20;;
57615;SDS011;43816;52.054;-9.494;2023-04-03T00:01:01;1.38;;;1.20;;
57615;SDS011;43816;52.054;-9.494;2023-04-03T00:01:12;1.73;;;1.30;;
57615;SDS011;43816;52.054;-9.494;2023-04-03T00:01:23;1.67;;;1.17;;
57615;SDS011;43816;52.054;-9.494;2023-04-03T00:01:34;1.63;;;1.30;;
57615;SDS011;43816;52.054;-9.494;2023-04-03T00:01:44;1.40;;;1.20;;
57615;SDS011;43816;52.054;-9.494;2023-04-03T00:01:54;1.73;;;1.30;;
57615;SDS011;43816;52.054;-9.494;2023-04-03T00:02:05;1.83;;;1.20;;
57615;SDS011;43816;52.054;-9.494;2023-04-03T00:02:15;2.17;;;1.35;;
57615;SDS011;43816;52.054;-9.494;2023-04-03T00:02:25;2.00;;;1.40;;
57615;SDS011;43816;52.054;-9.494;2023-04-03T00:02:36;1.77;;;1.40;;
57615;SDS011;43816;52.054;-9.494;2023-04-03T00:02:46;1.83;;;1.40;;
57615;SDS011;43816;52.054;-9.494;2023-04-03T00:02:56;1.73;;;1.30;;
57615;SDS011;43816;52.054;-9.494;2023-04-03T00:03:07;1.97;;;1.30;;
57615;SDS011;43816;52.054;-9.494;2023-04-03T00:03:18;1.65;;;1.17;;
57615;SDS011;43816;52.054;-9.494;2023-04-03T00:03:29;1.55;;;1.25;;
57615;SDS011;43816;52.054;-9.494;2023-04-03T00:03:39;1.37;;;1.10;;
57615;SDS011;43816;52.054;-9.494;2023-04-03T00:03:50;1.43;;;1.20;;
57615;SDS011;43816;52.054;-9.494;2023-04-03T00:04:00;1.70;;;1.20;;
57615;SDS011;43816;52.054;-9.494;2023-04-03T00:04:10;1.93;;;1.30;;
57615;SDS011;43816;52.054;-9.494;2023-04-03T00:04:21;1.63;;;1.15;;
57615;SDS011;43816;52.054;-9.494;2023-04-03T00:04:31;1.30;;;1.10;;
57615;SDS011;43816;52.054;-9.494;2023-04-03T00:04:41;1.10;;;1.00;;
57615;SDS011;43816;52.054;-9.494;2023-04-03T00:04:54;1.10;;;1.00;;
57615;SDS011;43816;52.054;-9.494;2023-04-03T00:05:05;1.33;;;1.00;;
57615;SDS011;43816;52.054;-9.494;2023-04-03T00:05:16;1.60;;;1.08;;
57615;SDS011;43816;52.054;-9.494;2023-04-03T00:05:26;1.77;;;1.10;;
57615;SDS011;43816;52.054;-9.494;2023-04-03T00:05:36;1.70;;;1.10;;
57615;SDS011;43816;52.054;-9.494;2023-04-03T00:05:47;1.60;;;1.00;;
57615;SDS011;43816;52.054;-9.494;2023-04-03T00:05:57;1.93;;;1.10;;
57615;SDS011;43816;52.054;-9.494;2023-04-03T00:06:08;2.10;;;1.27;;
57615;SDS011;43816;52.054;-9.494;2023-04-03T00:06:19;2.55;;;1.42;;
57615;SDS011;43816;52.054;-9.494;2023-04-03T00:06:30;2.57;;;1.40;;
57615;SDS011;43816;52.054;-9.494;2023-04-03T00:06:40;1.98;;;1.15;;
57615;SDS011;43816;52.054;-9.494;2023-04-03T00:06:50;1.37;;;1.10;;
57615;SDS011;43816;52.054;-9.494;2023-04-03T00:07:01;1.40;;;1.20;;
57615;SDS011;43816;52.054;-9.494;2023-04-03T00:07:11;1.60;;;1.30;;
57615;SDS011;43816;52.054;-9.494;2023-04-03T00:07:21;1.90;;;1.30;;
57615;SDS011;43816;52.054;-9.494;2023-04-03T00:07:31;1.73;;;1.23;;
57615;SDS011;43816;52.054;-9.494;2023-04-03T00:07:42;1.60;;;1.23;;
57615;SDS011;43816;52.054;-9.494;2023-04-03T00:07:52;1.50;;;1.15;;
57615;SDS011;43816;52.054;-9.494;2023-04-03T00:08:02;1.83;;;1.20;;
57615;SDS011;43816;52.054;-9.494;2023-04-03T00:08:13;1.93;;;1.20;;
57615;SDS011;43816;52.054;-9.494;2023-04-03T00:08:23;1.75;;;1.15;;
57615;SDS011;43816;52.054;-9.494;2023-04-03T00:08:34;1.10;;;1.00;;
57615;SDS011;43816;52.054;-9.494;2023-04-03T00:08:45;1.10;;;1.00;;
57615;SDS011;43816;52.054;-9.494;2023-04-03T00:08:56;1.33;;;1.07;;
57615;SDS011;43816;52.054;-9.494;2023-04-03T00:09:06;1.40;;;1.10;;
57615;SDS011;43816;52.054;-9.494;2023-04-03T00:09:16;1.93;;;1.27;;
57615;SDS011;43816;52.054;-9.494;2023-04-03T00:09:26;1.73;;;1.30;;
57615;SDS011;43816;52.054;-9.494;2023-04-03T00:09:37;1.88;;;1.30;;
57615;SDS011;43816;52.054;-9.494;2023-04-03T00:09:47;1.50;;;1.20;;
57615;SDS011;43816;52.054;-9.494;2023-04-03T00:09:57;1.50;;;1.10;;
57615;SDS011;43816;52.054;-9.494;2023-04-03T00:10:08;1.40;;;1.00;;
57615;SDS011;43816;52.054;-9.494;2023-04-03T00:10:18;1.37;;;1.10;;
57615;SDS011;43816;52.054;-9.494;2023-04-03T00:10:29;1.42;;;1.15;;
57615;SDS011;43816;52.054;-9.494;2023-04-03T00:10:39;1.50;;;1.20;;
57615;SDS011;43816;52.054;-9.494;2023-04-03T00:10:49;1.60;;;1.20;;
57615;SDS011;43816;52.054;-9.494;2023-04-03T00:11:00;1.63;;;1.30;;
57615;SDS011;43816;52.054;-9.494;2023-04-03T00:11:10;1.60;;;1.37;;
57615;SDS011;43816;52.054;-9.494;2023-04-03T00:11:21;1.50;;;1.25;;
57615;SDS011;43816;52.054;-9.494;2023-04-03T00:11:31;1.47;;;1.10;;
57615;SDS011;43816;52.054;-9.494;2023-04-03T00:11:42;1.88;;;1.25;;
57615;SDS011;43816;52.054;-9.494;2023-04-03T00:11:52;1.70;;;1.20;;
57615;SDS011;43816;52.054;-9.494;2023-04-03T00:12:02;1.57;;;1.27;;
57615;SDS011;43816;52.054;-9.494;2023-04-03T00:12:13;1.30;;;1.20;;
57615;SDS011;43816;52.054;-9.494;2023-04-03T00:12:23;1.67;;;1.30;;
57615;SDS011;43816;52.054;-9.494;2023-04-03T00:12:33;1.83;;;1.23;;
57615;SDS011;43816;52.054;-9.494;2023-04-03T00:12:44;1.97;;;1.20;;
57615;SDS011;43816;52.054;-9.494;2023-04-03T00:12:54;1.93;;;1.20;;
57615;SDS011;43816;52.054;-9.494;2023-04-03T00:13:04;2.13;;;1.20;;
57615;SDS011;43816;52.054;-9.494;2023-04-03T00:13:16;1.70;;;1.10;;
57615;SDS011;43816;52.054;-9.494;2023-04-03T00:13:26;1.65;;;1.10;;
57615;SDS011;43816;52.054;-9.494;2023-04-03T00:13:38;1.53;;;1.20;;
57615;SDS011;43816;52.054;-9.494;2023-04-03T00:13:48;1.60;;;1.20;;
57615;SDS011;43816;52.054;-9.494;2023-04-03T00:13:59;1.70;;;1.20;;
57615;SDS011;43816;52.054;-9.494;2023-04-03T00:14:09;1.50;;;1.20;;
57615;SDS011;43816;52.054;-9.494;2023-04-03T00:14:19;1.33;;;1.17;;
57615;SDS011;43816;52.054;-9.494;2023-04-03T00:14:30;1.30;;;1.10;;
57615;SDS011;43816;52.054;-9.494;2023-04-03T00:14:40;1.33;;;1.00;;
57615;SDS011;43816;52.054;-9.494;2023-04-03T00:14:51;1.77;;;1.00;;
57615;SDS011;43816;52.054;-9.494;2023-04-03T00:15:01;1.50;;;1.00;;
57615;SDS011;43816;52.054;-9.494;2023-04-03T00:15:12;1.50;;;1.10;;
57615;SDS011;43816;52.054;-9.494;2023-04-03T00:15:22;1.92;;;1.20;;
57615;SDS011;43816;52.054;-9.494;2023-04-03T00:15:32;2.07;;;1.20;;
57615;SDS011;43816;52.054;-9.494;2023-04-03T00:15:43;1.80;;;1.15;;
57615;SDS011;43816;52.054;-9.494;2023-04-03T00:15:54;1.20;;;1.10;;
57615;SDS011;43816;52.054;-9.494;2023-04-03T00:16:05;1.37;;;1.10;;
57615;SDS011;43816;52.054;-9.494;2023-04-03T00:16:15;1.48;;;1.15;;
57615;SDS011;43816;52.054;-9.494;2023-04-03T00:16:26;1.40;;;1.10;;
57615;SDS011;43816;52.054;-9.494;2023-04-03T00:16:36;1.40;;;1.00;;
57615;SDS011;43816;52.054;-9.494;2023-04-03T00:16:46;1.77;;;1.10;;
57615;SDS011;43816;52.054;-9.494;2023-04-03T00:16:57;2.00;;;1.20;;
57615;SDS011;43816;52.054;-9.494;2023-04-03T00:17:07;1.73;;;1.10;;
57615;SDS011;43816;52.054;-9.494;2023-04-03T00:17:17;1.33;;;1.00;;
57615;SDS011;43816;52.054;-9.494;2023-04-03T00:17:27;1.13;;;1.00;;
57615;SDS011;43816;52.054;-9.494;2023-04-03T00:17:38;1.30;;;1.00;;
57615;SDS011;43816;52.054;-9.494;2023-04-03T00:17:48;1.30;;;1.07;;
57615;SDS011;43816;52.054;-9.494;2023-04-03T00:17:58;1.40;;;1.05;;
57615;SDS011;43816;52.054;-9.494;2023-04-03T00:18:09;1.53;;;1.07;;
57615;SDS011;43816;52.054;-9.494;2023-04-03T00:18:19;1.47;;;1.00;;
57615;SDS011;43816;52.054;-9.494;2023-04-03T00:18:30;1.47;;;1.07;;
57615;SDS011;43816;52.054;-9.494;2023-04-03T00:18:41;1.23;;;1.00;;
57615;SDS011;43816;52.054;-9.494;2023-04-03T00:18:51;1.40;;;1.00;;
57615;SDS011;43816;52.054;-9.494;2023-04-03T00:19:02;1.50;;;1.17;;
57615;SDS011;43816;52.054;-9.494;2023-04-03T00:19:12;1.57;;;1.30;;
57615;SDS011;43816;52.054;-9.494;2023-04-03T00:19:25;1.33;;;1.20;;
57615;SDS011;43816;52.054;-9.494;2023-04-03T00:19:36;1.10;;;0.90;;
57615;SDS011;43816;52.054;-9.494;2023-04-03T00:19:46;1.02;;;0.80;;
57615;SDS011;43816;52.054;-9.494;2023-04-03T00:19:56;1.40;;;1.00;;
57615;SDS011;43816;52.054;-9.494;2023-04-03T00:20:07;1.40;;;1.00;;
57615;SDS011;43816;52.054;-9.494;2023-04-03T00:20:20;1.15;;;1.05;;
57615;SDS011;43816;52.054;-9.494;2023-04-03T00:20:31;1.40;;;0.90;;
57615;SDS011;43816;52.054;-9.494;2023-04-03T00:20:41;1.52;;;1.00;;
57615;SDS011;43816;52.054;-9.494;2023-04-03T00:20:52;1.85;;;1.05;;
57615;SDS011;43816;52.054;-9.494;2023-04-03T00:21:02;1.70;;;1.10;;
57615;SDS011;43816;52.054;-9.494;2023-04-03T00:21:13;2.00;;;1.20;;
57615;SDS011;43816;52.054;-9.494;2023-04-03T00:21:24;2.37;;;1.37;;
57615;SDS011;43816;52.054;-9.494;2023-04-03T00:21:34;2.38;;;1.38;;
57615;SDS011;43816;52.054;-9.494;2023-04-03T00:21:44;2.00;;;1.30;;
57615;SDS011;43816;52.054;-9.494;2023-04-03T00:21:54;1.47;;;1.10;;
57615;SDS011;43816;52.054;-9.494;2023-04-03T00:22:05;1.52;;;1.17;;
57615;SDS011;43816;52.054;-9.494;2023-04-03T00:22:15;1.60;;;1.20;;
57615;SDS011;43816;52.054;-9.494;2023-04-03T00:22:25;1.60;;;1.30;;
57615;SDS011;43816;52.054;-9.494;2023-04-03T00:22:36;1.40;;;1.20;;
57615;SDS011;43816;52.054;-9.494;2023-04-03T00:22:46;1.50;;;1.17;;
57615;SDS011;43816;52.054;-9.494;2023-04-03T00:22:56;1.60;;;1.10;;
57615;SDS011;43816;52.054;-9.494;2023-04-03T00:23:07;1.65;;;1.00;;
57615;SDS011;43816;52.054;-9.494;2023-04-03T00:23:17;1.90;;;1.00;;
57615;SDS011;43816;52.054;-9.494;2023-04-03T00:23:27;1.95;;;1.08;;
57615;SDS011;43816;52.054;-9.494;2023-04-03T00:23:38;1.80;;;1.10;;
57615;SDS011;43816;52.054;-9.494;2023-04-03T00:23:48;1.47;;;1.07;;
57615;SDS011;43816;52.054;-9.494;2023-04-03T00:23:58;1.33;;;1.00;;
57615;SDS011;43816;52.054;-9.494;2023-04-03T00:24:09;1.40;;;1.00;;
57615;SDS011;43816;52.054;-9.494;2023-04-03T00:24:19;1.53;;;1.10;;
57615;SDS011;43816;52.054;-9.494;2023-04-03T00:24:29;1.33;;;1.00;;
57615;SDS011;43816;52.054;-9.494;2023-04-03T00:24:40;1.53;;;1.00;;
57615;SDS011;43816;52.054;-9.494;2023-04-03T00:24:50;1.37;;;0.90;;
57615;SDS011;43816;52.054;-9.494;2023-04-03T00:25:00;1.83;;;1.00;;
57615;SDS011;43816;52.054;-9.494;2023-04-03T00:25:11;1.70;;;1.10;;
57615;SDS011;43816;52.054;-9.494;2023-04-03T00:25:21;1.63;;;1.20;;
57615;SDS011;43816;52.054;-9.494;2023-04-03T00:25:32;1.77;;;1.30;;
57615;SDS011;43816;52.054;-9.494;2023-04-03T00:25:43;1.50;;;1.13;;
57615;SDS011;43816;52.054;-9.494;2023-04-03T00:25:53;1.63;;;1.20;;
57615;SDS011;43816;52.054;-9.494;2023-04-03T00:26:04;1.40;;;1.10;;
57615;SDS011;43816;52.054;-9.494;2023-04-03T00:26:14;1.43;;;1.03;;
57615;SDS011;43816;52.054;-9.494;2023-04-03T00:26:25;1.37;;;1.00;;
57615;SDS011;43816;52.054;-9.494;2023-04-03T00:26:35;1.13;;;1.00;;
57615;SDS011;43816;52.054;-9.494;2023-04-03T00:26:45;1.20;;;1.00;;
57615;SDS011;43816;52.054;-9.494;2023-04-03T00:26:56;1.33;;;1.00;;
57615;SDS011;43816;52.054;-9.494;2023-04-03T00:27:06;1.40;;;1.08;;
57615;SDS011;43816;52.054;-9.494;2023-04-03T00:27:16;1.40;;;1.10;;
57615;SDS011;43816;52.054;-9.494;2023-04-03T00:27:26;1.40;;;1.10;;
57615;SDS011;43816;52.054;-9.494;2023-04-03T00:27:37;1.45;;;1.10;;
57615;SDS011;43816;52.054;-9.494;2023-04-03T00:27:48;1.60;;;1.10;;
57615;SDS011;43816;52.054;-9.494;2023-04-03T00:28:00;1.88;;;1.10;;
57615;SDS011;43816;52.054;-9.494;2023-04-03T00:28:10;1.92;;;1.17;;
57615;SDS011;43816;52.054;-9.494;2023-04-03T00:28:20;1.67;;;1.13;;
57615;SDS011;43816;52.054;-9.494;2023-04-03T00:28:31;1.80;;;1.20;;
57615;SDS011;43816;52.054;-9.494;2023-04-03T00:28:41;1.43;;;1.03;;
57615;SDS011;43816;52.054;-9.494;2023-04-03T00:28:51;1.40;;;1.00;;
57615;SDS011;43816;52.054;-9.494;2023-04-03T00:29:02;1.15;;;0.90;;
57615;SDS011;43816;52.054;-9.494;2023-04-03T00:29:12;1.13;;;0.97;;
57615;SDS011;43816;52.054;-9.494;2023-04-03T00:29:22;1.40;;;1.10;;
57615;SDS011;43816;52.054;-9.494;2023-04-03T00:29:33;1.42;;;1.10;;
57615;SDS011;43816;52.054;-9.494;2023-04-03T00:29:43;1.57;;;0.97;;
57615;SDS011;43816;52.054;-9.494;2023-04-03T00:29:53;1.27;;;0.90;;
57615;SDS011;43816;52.054;-9.494;2023-04-03T00:30:04;1.20;;;0.90;;
57615;SDS011;43816;52.054;-9.494;2023-04-03T00:30:16;1.10;;;0.90;;
57615;SDS011;43816;52.054;-9.494;2023-04-03T00:30:28;1.38;;;1.00;;
57615;SDS011;43816;52.054;-9.494;2023-04-03T00:30:38;1.30;;;1.00;;
57615;SDS011;43816;52.054;-9.494;2023-04-03T00:30:49;1.45;;;1.10;;
57615;SDS011;43816;52.054;-9.494;2023-04-03T00:30:59;1.45;;;1.05;;
57615;SDS011;43816;52.054;-9.494;2023-04-03T00:31:10;1.57;;;1.07;;
57615;SDS011;43816;52.054;-9.494;2023-04-03T00:31:20;1.58;;;1.05;;
57615;SDS011;43816;52.054;-9.494;2023-04-03T00:31:30;1.63;;;1.10;;
57615;SDS011;43816;52.054;-9.494;2023-04-03T00:31:41;1.87;;;1.20;;
57615;SDS011;43816;52.054;-9.494;2023-04-03T00:31:51;1.88;;;1.20;;
57615;SDS011;43816;52.054;-9.494;2023-04-03T00:32:01;1.87;;;1.10;;
57615;SDS011;43816;52.054;-9.494;2023-04-03T00:32:12;1.53;;;1.00;;
57615;SDS011;43816;52.054;-9.494;2023-04-03T00:32:22;1.55;;;1.17;;
57615;SDS011;43816;52.054;-9.494;2023-04-03T00:32:33;1.63;;;1.13;;
57615;SDS011;43816;52.054;-9.494;2023-04-03T00:32:43;1.63;;;1.15;;
57615;SDS011;43816;52.054;-9.494;2023-04-03T00:32:54;1.33;;;1.00;;
57615;SDS011;43816;52.054;-9.494;2023-04-03T00:33:04;1.58;;;1.05;;
57615;SDS011;43816;52.054;-9.494;2023-04-03T00:33:14;1.83;;;1.10;;
57615;SDS011;43816;52.054;-9.494;2023-04-03T00:33:25;2.10;;;1.03;;
57615;SDS011;43816;52.054;-9.494;2023-04-03T00:33:35;1.65;;;0.98;;
57615;SDS011;43816;52.054;-9.494;2023-04-03T00:33:45;1.60;;;0.90;;
57615;SDS011;43816;52.054;-9.494;2023-04-03T00:33:59;1.48;;;0.90;;
57615;SDS011;43816;52.054;-9.494;2023-04-03T00:34:09;2.10;;;1.15;;
57615;SDS011;43816;52.054;-9.494;2023-04-03T00:34:19;1.77;;;1.20;;
57615;SDS011;43816;52.054;-9.494;2023-04-03T00:34:29;1.90;;;1.20;;
57615;SDS011;43816;52.054;-9.494;2023-04-03T00:34:40;1.25;;;1.00;;
57615;SDS011;43816;52.054;-9.494;2023-04-03T00:34:50;1.27;;;1.10;;
57615;SDS011;43816;52.054;-9.494;2023-04-03T00:35:00;1.70;;;1.20;;
57615;SDS011;43816;52.054;-9.494;2023-04-03T00:35:11;1.85;;;1.20;;
57615;SDS011;43816;52.054;-9.494;2023-04-03T00:35:21;2.03;;;1.10;;
57615;SDS011;43816;52.054;-9.494;2023-04-03T00:35:33;1.60;;;1.00;;
57615;SDS011;43816;52.054;-9.494;2023-04-03T00:35:44;1.35;;;1.00;;
57615;SDS011;43816;52.054;-9.494;2023-04-03T00:35:55;1.52;;;1.00;;
57615;SDS011;43816;52.054;-9.494;2023-04-03T00:36:06;1.80;;;1.10;;
57615;SDS011;43816;52.054;-9.494;2023-04-03T00:36:20;1.58;;;1.00;;
57615;SDS011;43816;52.054;-9.494;2023-04-03T00:36:30;1.17;;;0.97;;
57615;SDS011;43816;52.054;-9.494;2023-04-03T00:36:40;1.58;;;1.00;;
57615;SDS011;43816;52.054;-9.494;2023-04-03T00:36:51;1.80;;;1.20;;
57615;SDS011;43816;52.054;-9.494;2023-04-03T00:37:01;1.87;;;1.13;;
57615;SDS011;43816;52.054;-9.494;2023-04-03T00:37:11;2.10;;;1.20;;
57615;SDS011;43816;52.054;-9.494;2023-04-03T00:37:21;2.17;;;1.10;;
57615;SDS011;43816;52.054;-9.494;2023-04-03T00:37:32;1.80;;;1.13;;
57615;SDS011;43816;52.054;-9.494;2023-04-03T00:37:43;1.38;;;1.08;;
57615;SDS011;43816;52.054;-9.494;2023-04-03T00:37:54;1.70;;;1.13;;
57615;SDS011;43816;52.054;-9.494;2023-04-03T00:38:05;1.73;;;1.10;;
57615;SDS011;43816;52.054;-9.494;2023-04-03T00:38:15;1.83;;;1.07;;
57615;SDS011;43816;52.054;-9.494;2023-04-03T00:38:26;2.00;;;1.05;;
57615;SDS011;43816;52.054;-9.494;2023-04-03T00:38:36;1.97;;;1.10;;
57615;SDS011;43816;52.054;-9.494;2023-04-03T00:38:47;2.17;;;1.17;;
57615;SDS011;43816;52.054;-9.494;2023-04-03T00:38:57;2.20;;;1.17;;
57615;SDS011;43816;52.054;-9.494;2023-04-03T00:39:07;2.17;;;1.20;;
57615;SDS011;43816;52.054;-9.494;2023-04-03T00:39:18;1.77;;;1.20;;
57615;SDS011;43816;52.054;-9.494;2023-04-03T00:39:28;1.40;;;1.13;;
57615;SDS011;43816;52.054;-9.494;2023-04-03T00:39:38;1.60;;;1.10;;
57615;SDS011;43816;52.054;-9.494;2023-04-03T00:39:48;1.80;;;1.10;;
57615;SDS011;43816;52.054;-9.494;2023-04-03T00:39:59;1.83;;;1.02;;
57615;SDS011;43816;52.054;-9.494;2023-04-03T00:40:09;1.57;;;1.07;;
57615;SDS011;43816;52.054;-9.494;2023-04-03T00:40:22;1.83;;;1.10;;
57615;SDS011;43816;52.054;-9.494;2023-04-03T00:40:35;1.85;;;1.00;;
57615;SDS011;43816;52.054;-9.494;2023-04-03T00:40:48;1.73;;;1.00;;
57615;SDS011;43816;52.054;-9.494;2023-04-03T00:40:59;1.75;;;1.05;;
57615;SDS011;43816;52.054;-9.494;2023-04-03T00:41:09;1.60;;;1.00;;
57615;SDS011;43816;52.054;-9.494;2023-04-03T00:41:19;1.43;;;1.00;;
57615;SDS011;43816;52.054;-9.494;2023-04-03T00:41:29;1.48;;;0.98;;
57615;SDS011;43816;52.054;-9.494;2023-04-03T00:41:40;1.43;;;1.00;;
57615;SDS011;43816;52.054;-9.494;2023-04-03T00:41:50;1.53;;;1.00;;
57615;SDS011;43816;52.054;-9.494;2023-04-03T00:42:00;1.45;;;1.00;;
57615;SDS011;43816;52.054;-9.494;2023-04-03T00:42:11;1.57;;;1.00;;
57615;SDS011;43816;52.054;-9.494;2023-04-03T00:42:21;1.67;;;1.00;;
57615;SDS011;43816;52.054;-9.494;2023-04-03T00:42:32;1.92;;;1.00;;
57615;SDS011;43816;52.054;-9.494;2023-04-03T00:42:42;1.83;;;1.00;;
57615;SDS011;43816;52.054;-9.494;2023-04-03T00:42:58;1.52;;;0.90;;
57615;SDS011;43816;52.054;-9.494;2023-04-03T00:43:13;1.17;;;0.90;;
57615;SDS011;43816;52.054;-9.494;2023-04-03T00:43:28;1.38;;;0.93;;
57615;SDS011;43816;52.054;-9.494;2023-04-03T00:43:39;1.58;;;0.90;;
57615;SDS011;43816;52.054;-9.494;2023-04-03T00:43:49;1.67;;;1.00;;
57615;SDS011;43816;52.054;-9.494;2023-04-03T00:43:59;1.80;;;1.00;;
57615;SDS011;43816;52.054;-9.494;2023-04-03T00:44:23;1.80;;;1.10;;
57615;SDS011;43816;52.054;-9.494;2023-04-03T00:45:29;1.52;;;1.10;;
57615;SDS011;43816;52.054;-9.494;2023-04-03T00:45:43;1.25;;;0.88;;
57615;SDS011;43816;52.054;-9.494;2023-04-03T00:45:56;1.45;;;1.00;;
57615;SDS011;43816;52.054;-9.494;2023-04-03T00:46:07;2.05;;;1.10;;
57615;SDS011;43816;52.054;-9.494;2023-04-03T00:46:17;2.00;;;1.10;;
57615;SDS011;43816;52.054;-9.494;2023-04-03T00:46:28;1.60;;;1.00;;
57615;SDS011;43816;52.054;-9.494;2023-04-03T00:46:38;1.77;;;0.93;;
57615;SDS011;43816;52.054;-9.494;2023-04-03T00:46:48;2.43;;;1.00;;
57615;SDS011;43816;52.054;-9.494;2023-04-03T00:46:59;2.63;;;1.10;;
57615;SDS011;43816;52.054;-9.494;2023-04-03T00:47:11;2.28;;;1.10;;
57615;SDS011;43816;52.054;-9.494;2023-04-03T00:47:23;1.65;;;1.05;;
57615;SDS011;43816;52.054;-9.494;2023-04-03T00:47:34;1.45;;;1.00;;
57615;SDS011;43816;52.054;-9.494;2023-04-03T00:47:45;1.73;;;1.05;;
57615;SDS011;43816;52.054;-9.494;2023-04-03T00:47:55;1.93;;;1.07;;
57615;SDS011;43816;52.054;-9.494;2023-04-03T00:48:07;2.05;;;1.10;;
57615;SDS011;43816;52.054;-9.494;2023-04-03T00:48:46;2.03;;;1.08;;
57615;SDS011;43816;52.054;-9.494;2023-04-03T00:48:57;1.50;;;0.95;;
57615;SDS011;43816;52.054;-9.494;2023-04-03T00:49:08;1.70;;;1.00;;
57615;SDS011;43816;52.054;-9.494;2023-04-03T00:49:18;2.33;;;1.03;;
57615;SDS011;43816;52.054;-9.494;2023-04-03T00:49:28;2.30;;;1.00;;
57615;SDS011;43816;52.054;-9.494;2023-04-03T00:49:39;2.05;;;1.05;;
57615;SDS011;43816;52.054;-9.494;2023-04-03T00:49:50;1.10;;;1.00;;
57615;SDS011;43816;52.054;-9.494;2023-04-03T00:50:05;1.25;;;0.90;;
57615;SDS011;43816;52.054;-9.494;2023-04-03T00:50:16;1.75;;;0.90;;
57615;SDS011;43816;52.054;-9.494;2023-04-03T00:50:27;1.90;;;0.98;;
57615;SDS011;43816;52.054;-9.494;2023-04-03T00:50:40;1.92;;;1.02;;
57615;SDS011;43816;52.054;-9.494;2023-04-03T00:50:52;1.48;;;0.90;;
57615;SDS011;43816;52.054;-9.494;2023-04-03T00:51:03;1.45;;;0.90;;
57615;SDS011;43816;52.054;-9.494;2023-04-03T00:51:20;1.45;;;0.80;;
57615;SDS011;43816;52.054;-9.494;2023-04-03T00:51:33;1.27;;;0.90;;
57615;SDS011;43816;52.054;-9.494;2023-04-03T00:51:44;1.13;;;0.93;;
57615;SDS011;43816;52.054;-9.494;2023-04-03T00:51:55;1.13;;;0.93;;
57615;SDS011;43816;52.054;-9.494;2023-04-03T00:52:07;1.35;;;0.98;;
57615;SDS011;43816;52.054;-9.494;2023-04-03T00:52:22;1.42;;;1.00;;
57615;SDS011;43816;52.054;-9.494;2023-04-03T00:52:38;1.50;;;0.90;;
57615;SDS011;43816;52.054;-9.494;2023-04-03T00:52:49;1.88;;;0.90;;
57615;SDS011;43816;52.054;-9.494;2023-04-03T00:53:00;1.70;;;0.93;;
57615;SDS011;43816;52.054;-9.494;2023-04-03T00:53:13;1.42;;;0.93;;
57615;SDS011;43816;52.054;-9.494;2023-04-03T00:53:29;1.23;;;0.90;;
57615;SDS011;43816;52.054;-9.494;2023-04-03T00:53:44;1.50;;;0.90;;
57615;SDS011;43816;52.054;-9.494;2023-04-03T00:54:01;1.48;;;0.85;;
57615;SDS011;43816;52.054;-9.494;2023-04-03T00:54:14;1.42;;;0.90;;
57615;SDS011;43816;52.054;-9.494;2023-04-03T00:54:25;1.53;;;0.90;;
57615;SDS011;43816;52.054;-9.494;2023-04-03T00:54:36;1.70;;;0.90;;
57615;SDS011;43816;52.054;-9.494;2023-04-03T00:54:47;1.75;;;0.90;;
57615;SDS011;43816;52.054;-9.494;2023-04-03T00:55:01;1.50;;;0.90;;
57615;SDS011;43816;52.054;-9.494;2023-04-03T00:55:15;1.40;;;0.88;;
57615;SDS011;43816;52.054;-9.494;2023-04-03T00:55:26;2.13;;;0.97;;
57615;SDS011;43816;52.054;-9.494;2023-04-03T00:55:37;1.88;;;0.90;;
57615;SDS011;43816;52.054;-9.494;2023-04-03T00:55:48;2.30;;;0.95;;
57615;SDS011;43816;52.054;-9.494;2023-04-03T00:56:00;1.98;;;0.98;;
57615;SDS011;43816;52.054;-9.494;2023-04-03T00:56:12;2.50;;;1.10;;
57615;SDS011;43816;52.054;-9.494;2023-04-03T00:56:26;2.55;;;1.20;;
57615;SDS011;43816;52.054;-9.494;2023-04-03T00:56:39;2.40;;;1.10;;
57615;SDS011;43816;52.054;-9.494;2023-04-03T00:56:51;1.60;;;1.00;;
57615;SDS011;43816;52.054;-9.494;2023-04-03T00:57:03;1.20;;;1.00;;
57615;SDS011;43816;52.054;-9.494;2023-04-03T00:57:15;1.88;;;1.08;;
57615;SDS011;43816;52.054;-9.494;2023-04-03T00:57:26;1.95;;;1.00;;
57615;SDS011;43816;52.054;-9.494;2023-04-03T00:57:37;2.17;;;1.00;;
57615;SDS011;43816;52.054;-9.494;2023-04-03T00:57:48;1.75;;;0.90;;
57615;SDS011;43816;52.054;-9.494;2023-04-03T00:57:59;1.40;;;0.90;;
57615;SDS011;43816;52.054;-9.494;2023-04-03T00:58:10;1.17;;;0.90;;
57615;SDS011;43816;52.054;-9.494;2023-04-03T00:58:22;1.25;;;0.90;;
57615;SDS011;43816;52.054;-9.494;2023-04-03T00:59:21;1.40;;;1.05;;
57615;SDS011;43816;52.054;-9.494;2023-04-03T00:59:29;1.38;;;0.93;;
57615;SDS011;43816;52.054;-9.494;2023-04-03T00:59:34;1.40;;;0.98;;
57615;SDS011;43816;52.054;-9.494;2023-04-03T00:59:50;1.77;;;0.90;;
57615;SDS011;43816;52.054;-9.494;2023-04-03T01:00:05;1.80;;;0.93;;
57615;SDS011;43816;52.054;-9.494;2023-04-03T01:00:19;1.45;;;1.00;;
57615;SDS011;43816;52.054;-9.494;2023-04-03T01:00:32;1.38;;;0.90;;
57615;SDS011;43816;52.054;-9.494;2023-04-03T01:00:44;1.30;;;0.80;;
57615;SDS011;43816;52.054;-9.494;2023-04-03T01:01:00;2.00;;;1.10;;
57615;SDS011;43816;52.054;-9.494;2023-04-03T01:01:17;1.90;;;0.98;;
57615;SDS011;43816;52.054;-9.494;2023-04-03T01:01:31;1.60;;;0.73;;
57615;SDS011;43816;52.054;-9.494;2023-04-03T01:01:42;1.70;;;0.90;;
57615;SDS011;43816;52.054;-9.494;2023-04-03T01:01:53;1.45;;;0.95;;
57615;SDS011;43816;52.054;-9.494;2023-04-03T01:02:04;1.83;;;1.00;;
57615;SDS011;43816;52.054;-9.494;2023-04-03T01:02:15;1.90;;;0.90;;
57615;SDS011;43816;52.054;-9.494;2023-04-03T01:02:25;2.00;;;1.00;;
57615;SDS011;43816;52.054;-9.494;2023-04-03T01:02:35;1.43;;;1.07;;
57615;SDS011;43816;52.054;-9.494;2023-04-03T01:02:46;1.88;;;1.30;;
57615;SDS011;43816;52.054;-9.494;2023-04-03T01:02:56;1.93;;;1.20;;
57615;SDS011;43816;52.054;-9.494;2023-04-03T01:03:06;1.87;;;1.23;;
57615;SDS011;43816;52.054;-9.494;2023-04-03T01:03:17;1.80;;;1.05;;
57615;SDS011;43816;52.054;-9.494;2023-04-03T01:03:27;2.13;;;1.13;;
57615;SDS011;43816;52.054;-9.494;2023-04-03T01:03:37;1.73;;;1.00;;
57615;SDS011;43816;52.054;-9.494;2023-04-03T01:03:48;1.47;;;0.90;;
57615;SDS011;43816;52.054;-9.494;2023-04-03T01:03:59;1.25;;;0.80;;
57615;SDS011;43816;52.054;-9.494;2023-04-03T01:04:29;1.60;;;0.90;;
57615;SDS011;43816;52.054;-9.494;2023-04-03T01:04:42;1.65;;;0.98;;
57615;SDS011;43816;52.054;-9.494;2023-04-03T01:04:53;1.55;;;1.00;;
57615;SDS011;43816;52.054;-9.494;2023-04-03T01:05:04;1.43;;;1.10;;
57615;SDS011;43816;52.054;-9.494;2023-04-03T01:05:14;1.63;;;1.00;;
57615;SDS011;43816;52.054;-9.494;2023-04-03T01:05:26;1.77;;;1.05;;
57615;SDS011;43816;52.054;-9.494;2023-04-03T01:05:36;1.77;;;0.98;;
57615;SDS011;43816;52.054;-9.494;2023-04-03T01:05:47;1.60;;;0.90;;
57615;SDS011;43816;52.054;-9.494;2023-04-03T01:05:58;1.55;;;0.93;;
57615;SDS011;43816;52.054;-9.494;2023-04-03T01:06:08;1.63;;;1.00;;
57615;SDS011;43816;52.054;-9.494;2023-04-03T01:06:20;1.63;;;0.93;;
57615;SDS011;43816;52.054;-9.494;2023-04-03T01:06:35;1.45;;;0.93;;
57615;SDS011;43816;52.054;-9.494;2023-04-03T01:06:47;1.25;;;0.90;;
57615;SDS011;43816;52.054;-9.494;2023-04-03T01:06:59;1.70;;;0.98;;
57615;SDS011;43816;52.054;-9.494;2023-04-03T01:07:18;2.05;;;1.13;;
57615;SDS011;43816;52.054;-9.494;2023-04-03T01:07:32;1.35;;;1.00;;
57615;SDS011;43816;52.054;-9.494;2023-04-03T01:07:42;1.63;;;1.02;;
57615;SDS011;43816;52.054;-9.494;2023-04-03T01:07:53;1.80;;;1.10;;